createdAt,value
2022-12-23T00:01:13.606Z,100338.06
2022-12-23T00:03:40.203Z,100332.91
2022-12-23T00:06:12.149Z,100338.22
2022-12-23T00:08:38.649Z,100332.59
2022-12-23T00:11:06.880Z,100348.09
2022-12-23T00:13:52.033Z,100347.09
2022-12-23T00:16:18.639Z,100349.38
2022-12-23T00:18:45.150Z,100353.81
2022-12-23T00:21:14.055Z,100365.28
2022-12-23T00:23:43.752Z,100358.47
2022-12-23T00:26:15.879Z,100368.53
2022-12-23T00:28:42.560Z,100362.56
2022-12-23T00:31:09.846Z,100370.00
2022-12-23T00:33:38.802Z,100377.94
2022-12-23T00:36:23.385Z,100372.00
2022-12-23T00:39:09.135Z,100373.41
2022-12-23T00:41:54.035Z,100372.94
2022-12-23T00:44:20.697Z,100374.56
2022-12-23T00:46:47.127Z,100374.75
2022-12-23T00:49:33.250Z,100367.75
2022-12-23T00:52:00.159Z,100372.19
2022-12-23T00:54:26.725Z,100376.66
2022-12-23T00:56:53.737Z,100379.94
2022-12-23T00:59:20.135Z,100391.25
2022-12-23T01:02:05.529Z,100394.16
2022-12-23T01:04:50.966Z,100394.16
2022-12-23T01:07:19.862Z,100405.63
2022-12-23T01:09:46.310Z,100397.53
2022-12-23T01:12:12.730Z,100396.91
2022-12-23T01:14:39.188Z,100389.78
2022-12-23T01:17:07.098Z,100401.59
2022-12-23T01:19:33.984Z,100394.16
2022-12-23T01:22:00.344Z,100401.75
2022-12-23T01:24:32.670Z,100404.84
2022-12-23T01:26:59.552Z,100413.72
2022-12-23T01:29:26.253Z,100410.97
2022-12-23T01:31:52.759Z,100414.19
2022-12-23T01:34:19.260Z,100426.97
2022-12-23T01:36:45.774Z,100423.91
2022-12-23T01:39:12.191Z,100424.22
2022-12-23T01:41:57.415Z,100432.16
2022-12-23T01:44:52.680Z,100431.53
2022-12-23T01:47:24.776Z,100438.97
2022-12-23T01:49:54.722Z,100440.44
2022-12-23T01:52:21.230Z,100440.97
2022-12-23T01:54:47.875Z,100446.78
2022-12-23T01:57:14.399Z,100449.50
2022-12-23T02:00:13.548Z,100456.63
2022-12-23T02:02:59.626Z,100462.31
2022-12-23T02:05:26.333Z,100465.66
2022-12-23T02:08:11.919Z,100462.94
2022-12-23T02:11:02.554Z,100470.88
2022-12-23T02:14:03.221Z,100476.72
2022-12-23T02:16:33.936Z,100478.00
2022-12-23T02:19:10.224Z,100477.34
2022-12-23T02:22:14.033Z,100479.13
2022-12-23T02:25:04.883Z,100485.91
2022-12-23T02:27:49.745Z,100489.34
2022-12-23T02:30:22.196Z,100501.63
2022-12-23T02:33:03.747Z,100492.72
2022-12-23T02:35:44.218Z,100502.59
2022-12-23T02:38:25.766Z,100503.75
2022-12-23T02:41:16.940Z,100496.44
2022-12-23T02:44:04.492Z,100501.13
2022-12-23T02:46:44.834Z,100497.25
2022-12-23T02:49:15.079Z,100514.41
2022-12-23T02:51:44.675Z,100518.63
2022-12-23T02:54:14.343Z,100516.03
2022-12-23T02:56:43.470Z,100517.63
2022-12-23T02:59:16.552Z,100525.72
2022-12-23T03:01:44.640Z,100526.84
2022-12-23T03:04:11.164Z,100528.31
2022-12-23T03:06:43.548Z,100529.28
2022-12-23T03:09:29.928Z,100527.19
2022-12-23T03:12:27.302Z,100533.66
2022-12-23T03:15:02.321Z,100537.34
2022-12-23T03:17:35.272Z,100533.00
2022-12-23T03:20:15.271Z,100531.22
2022-12-23T03:23:02.151Z,100530.72
2022-12-23T03:25:34.367Z,100528.31
2022-12-23T03:28:10.369Z,100517.94
2022-12-23T03:30:39.534Z,100523.81
2022-12-23T03:33:22.678Z,100525.25
2022-12-23T03:35:53.727Z,100530.75
2022-12-23T03:38:21.555Z,100524.44
2022-12-23T03:40:50.687Z,100522.66
2022-12-23T03:43:27.650Z,100538.66
2022-12-23T03:45:58.146Z,100534.59
2022-12-23T03:48:37.292Z,100534.59
2022-12-23T03:51:09.598Z,100537.22
2022-12-23T03:53:46.819Z,100527.34
2022-12-23T03:56:21.188Z,100534.63
2022-12-23T03:58:48.885Z,100528.16
2022-12-23T04:01:38.169Z,100534.63
2022-12-23T04:04:11.944Z,100542.22
2022-12-23T04:07:27.994Z,100552.41
2022-12-23T04:09:54.712Z,100557.59
2022-12-23T04:12:23.250Z,100553.69
2022-12-23T04:14:50.048Z,100578.81
2022-12-23T04:17:16.701Z,100581.69
2022-12-23T04:19:45.566Z,100586.41
2022-12-23T04:22:13.118Z,100593.50
2022-12-23T04:24:39.785Z,100592.03
2022-12-23T04:27:07.021Z,100593.50
2022-12-23T04:29:36.097Z,100581.22
2022-12-23T04:32:02.465Z,100592.22
2022-12-23T04:34:28.899Z,100587.06
2022-12-23T04:36:55.465Z,100589.16
2022-12-23T04:39:22.110Z,100578.94
2022-12-23T04:41:48.734Z,100577.19
2022-12-23T04:44:15.172Z,100593.03
2022-12-23T04:46:42.000Z,100584.47
2022-12-23T04:49:08.657Z,100577.50
2022-12-23T04:51:35.070Z,100575.41
2022-12-23T04:54:01.513Z,100571.81
2022-12-23T04:56:27.978Z,100570.22
2022-12-23T04:58:54.513Z,100566.81
2022-12-23T05:01:20.993Z,100567.94
2022-12-23T05:03:47.490Z,100576.69
2022-12-23T05:06:13.945Z,100563.59
2022-12-23T05:08:40.304Z,100569.41
2022-12-23T05:11:07.413Z,100563.91
2022-12-23T05:13:33.841Z,100571.19
2022-12-23T05:16:00.351Z,100581.72
2022-12-23T05:18:26.849Z,100572.31
2022-12-23T05:20:53.242Z,100583.81
2022-12-23T05:23:19.608Z,100589.78
2022-12-23T05:25:51.065Z,100587.34
2022-12-23T05:28:17.498Z,100588.34
2022-12-23T05:30:44.141Z,100591.41
2022-12-23T05:33:10.596Z,100596.59
2022-12-23T05:35:37.133Z,100600.00
2022-12-23T05:38:04.079Z,100590.78
2022-12-23T05:40:32.031Z,100607.75
2022-12-23T05:43:00.195Z,100605.66
2022-12-23T05:45:26.645Z,100601.47
2022-12-23T05:47:53.117Z,100605.16
2022-12-23T05:50:19.494Z,100608.56
2022-12-23T05:52:45.893Z,100610.34
2022-12-23T05:55:12.335Z,100614.06
2022-12-23T05:57:38.710Z,100606.13
2022-12-23T06:00:05.550Z,100609.72
2022-12-23T06:02:32.113Z,100616.16
2022-12-23T06:04:58.607Z,100614.22
2022-12-23T06:07:25.012Z,100598.53
2022-12-23T06:09:51.490Z,100605.97
2022-12-23T06:12:17.864Z,100605.19
2022-12-23T06:14:44.349Z,100600.81
2022-12-23T06:17:10.777Z,100607.94
2022-12-23T06:19:37.160Z,100592.56
2022-12-23T06:22:03.606Z,100585.94
2022-12-23T06:24:30.000Z,100591.75
2022-12-23T06:26:57.514Z,100584.13
2022-12-23T06:29:24.911Z,100584.63
2022-12-23T06:31:51.501Z,100583.66
2022-12-23T06:34:18.057Z,100593.84
2022-12-23T06:36:44.488Z,100583.16
2022-12-23T06:39:11.205Z,100590.91
2022-12-23T06:41:37.579Z,100605.50
2022-12-23T06:44:04.177Z,100592.06
2022-12-23T06:46:30.650Z,100602.41
2022-12-23T06:48:57.137Z,100614.06
2022-12-23T06:51:23.567Z,100619.56
2022-12-23T06:53:49.954Z,100608.91
2022-12-23T06:56:16.439Z,100615.53
2022-12-23T06:58:42.869Z,100610.84
2022-12-23T07:01:10.212Z,100609.22
2022-12-23T07:03:36.955Z,100610.69
2022-12-23T07:06:03.674Z,100613.09
2022-12-23T07:08:30.093Z,100622.50
2022-12-23T07:11:00.663Z,100619.72
2022-12-23T07:13:27.317Z,100625.25
2022-12-23T07:15:53.885Z,100631.06
2022-12-23T07:18:22.786Z,100630.44
2022-12-23T07:20:50.000Z,100632.53
2022-12-23T07:23:16.596Z,100645.63
2022-12-23T07:25:42.999Z,100650.47
2022-12-23T07:28:09.373Z,100642.53
2022-12-23T07:30:36.083Z,100643.19
2022-12-23T07:33:02.485Z,100653.88
2022-12-23T07:35:28.851Z,100647.25
2022-12-23T07:37:56.107Z,100642.88
2022-12-23T07:40:23.340Z,100648.84
2022-12-23T07:42:50.406Z,100642.06
2022-12-23T07:45:16.912Z,100639.81
2022-12-23T07:47:43.565Z,100636.56
2022-12-23T07:50:10.198Z,100628.16
2022-12-23T07:52:37.083Z,100616.81
2022-12-23T07:55:04.108Z,100622.47
2022-12-23T07:57:30.543Z,100613.59
2022-12-23T07:59:57.192Z,100620.38
2022-12-23T08:02:25.067Z,100614.56
2022-12-23T08:04:52.048Z,100622.31
2022-12-23T08:07:18.513Z,100624.59
2022-12-23T08:09:44.922Z,100611.00
2022-12-23T08:12:11.355Z,100606.63
2022-12-23T08:14:37.785Z,100608.56
2022-12-23T08:17:04.297Z,100597.56
2022-12-23T08:19:30.787Z,100597.41
2022-12-23T08:21:57.197Z,100600.66
2022-12-23T08:24:23.620Z,100600.66
2022-12-23T08:26:50.003Z,100606.47
2022-12-23T08:29:17.058Z,100605.31
2022-12-23T08:31:43.505Z,100610.03
2022-12-23T08:34:10.667Z,100598.41
2022-12-23T08:36:37.067Z,100592.56
2022-12-23T08:39:07.065Z,100579.28
2022-12-23T08:41:35.608Z,100581.03
2022-12-23T08:44:02.012Z,100575.88
2022-12-23T08:46:28.621Z,100572.31
2022-12-23T08:48:55.806Z,100574.59
2022-12-23T08:51:24.144Z,100573.78
2022-12-23T08:53:56.239Z,100564.88
2022-12-23T08:56:28.445Z,100566.66
2022-12-23T08:58:55.405Z,100561.97
2022-12-23T09:01:24.144Z,100559.53
2022-12-23T09:03:51.252Z,100548.69
2022-12-23T09:06:28.672Z,100545.94
2022-12-23T09:08:55.914Z,100550.47
2022-12-23T09:11:23.975Z,100548.38
2022-12-23T09:13:50.644Z,100547.72
2022-12-23T09:16:17.589Z,100548.53
2022-12-23T09:18:44.415Z,100554.03
2022-12-23T09:21:14.105Z,100554.50
2022-12-23T09:23:40.835Z,100555.94
2022-12-23T09:26:08.233Z,100549.50
2022-12-23T09:28:34.686Z,100546.25
2022-12-23T09:31:08.913Z,100543.19
2022-12-23T09:33:35.789Z,100548.84
2022-12-23T09:36:03.209Z,100546.91
2022-12-23T09:38:29.803Z,100542.03
2022-12-23T09:41:05.893Z,100545.28
2022-12-23T09:43:58.518Z,100545.28
2022-12-23T09:46:27.449Z,100538.97
2022-12-23T09:49:04.318Z,100538.34
2022-12-23T09:51:30.930Z,100532.00
2022-12-23T09:54:16.666Z,100520.69
2022-12-23T09:57:02.582Z,100507.25
2022-12-23T09:59:47.665Z,100496.75
2022-12-23T10:02:23.546Z,100493.34
2022-12-23T10:04:58.003Z,100489.78
2022-12-23T10:07:44.218Z,100485.75
2022-12-23T10:10:17.652Z,100476.84
2022-12-23T10:12:47.273Z,100478.13
2022-12-23T10:15:38.113Z,100469.06
2022-12-23T10:18:40.207Z,100464.50
2022-12-23T10:21:12.895Z,100454.16
2022-12-23T10:23:42.872Z,100465.31
2022-12-23T10:26:12.727Z,100456.63
2022-12-23T10:28:39.232Z,100459.69
2022-12-23T10:34:07.441Z,100453.66
2022-12-23T10:37:01.145Z,100439.28
2022-12-23T10:39:57.336Z,100452.03
2022-12-23T10:42:26.561Z,100445.06
2022-12-23T10:45:09.906Z,100440.09
2022-12-23T10:48:06.098Z,100436.19
2022-12-23T10:50:45.996Z,100438.13
2022-12-23T10:53:17.107Z,100440.88
2022-12-23T10:55:43.833Z,100433.69
2022-12-23T10:58:17.545Z,100429.81
2022-12-23T11:00:59.283Z,100430.31
2022-12-23T11:03:32.792Z,100423.50
2022-12-23T11:05:59.568Z,100412.81
2022-12-23T11:08:27.597Z,100409.72
2022-12-23T11:10:54.354Z,100408.56
2022-12-23T11:13:41.709Z,100408.63
2022-12-23T11:16:25.155Z,100403.38
2022-12-23T11:18:54.509Z,100400.63
2022-12-23T11:21:21.123Z,100393.50
2022-12-23T11:23:47.784Z,100394.91
2022-12-23T11:26:19.683Z,100392.06
2022-12-23T11:28:51.691Z,100384.28
2022-12-23T11:31:26.907Z,100377.31
2022-12-23T11:33:59.252Z,100379.91
2022-12-23T11:36:28.055Z,100367.09
2022-12-23T11:39:04.974Z,100364.19
2022-12-23T11:41:37.499Z,100354.47
2022-12-23T11:44:07.461Z,100343.16
2022-12-23T11:46:34.167Z,100348.44
2022-12-23T11:49:21.854Z,100326.53
2022-12-23T11:52:08.489Z,100319.25
2022-12-23T11:54:35.125Z,100307.84
2022-12-23T11:57:03.356Z,100315.59
2022-12-23T11:59:35.642Z,100302.00
2022-12-23T12:02:23.844Z,100296.69
2022-12-23T12:04:57.185Z,100294.91
2022-12-23T12:07:24.159Z,100302.47
2022-12-23T12:09:51.302Z,100294.31
2022-12-23T12:12:20.259Z,100291.75
2022-12-23T12:14:51.984Z,100290.47
2022-12-23T12:17:41.012Z,100287.84
2022-12-23T12:20:27.926Z,100276.75
2022-12-23T12:22:57.956Z,100272.81
2022-12-23T12:25:37.965Z,100269.06
2022-12-23T12:28:11.282Z,100263.44
2022-12-23T12:30:42.144Z,100260.31
2022-12-23T12:33:28.885Z,100246.59
2022-12-23T12:36:21.867Z,100228.84
2022-12-23T12:38:49.204Z,100227.78
2022-12-23T12:41:34.607Z,100228.47
2022-12-23T12:44:16.145Z,100215.25
2022-12-23T12:46:57.783Z,100195.81
2022-12-23T12:49:41.071Z,100187.88
2022-12-23T12:52:22.328Z,100188.19
2022-12-23T12:54:56.522Z,100187.84
2022-12-23T12:57:23.851Z,100185.69
2022-12-23T12:59:57.378Z,100179.34
2022-12-23T13:02:29.329Z,100173.06
2022-12-23T13:05:06.059Z,100171.47
2022-12-23T13:07:44.582Z,100166.06
2022-12-23T13:10:18.556Z,100165.16
2022-12-23T13:12:56.394Z,100173.81
2022-12-23T13:15:24.009Z,100169.44
2022-12-23T13:18:09.262Z,100173.53
2022-12-23T13:21:03.566Z,100170.78
2022-12-23T13:23:44.672Z,100170.59
2022-12-23T13:26:26.624Z,100181.78
2022-12-23T13:29:17.615Z,100167.75
2022-12-23T13:31:46.969Z,100168.09
2022-12-23T13:34:23.959Z,100164.09
2022-12-23T13:36:59.322Z,100159.06
2022-12-23T13:39:52.071Z,100157.28
2022-12-23T13:42:30.200Z,100161.03
2022-12-23T13:44:57.650Z,100147.09
2022-12-23T13:48:05.734Z,100136.19
2022-12-23T13:50:38.178Z,100118.75
2022-12-23T13:53:25.846Z,100120.25
2022-12-23T13:55:57.726Z,100110.72
2022-12-23T13:58:31.190Z,100103.13
2022-12-23T14:00:59.066Z,100088.25
2022-12-23T14:03:33.552Z,100073.03
2022-12-23T14:06:00.193Z,100060.81
2022-12-23T14:08:31.648Z,100072.09
2022-12-23T14:11:02.609Z,100066.00
2022-12-23T14:13:43.163Z,100069.41
2022-12-23T14:16:12.995Z,100060.22
2022-12-23T14:19:06.949Z,100043.88
2022-12-23T14:22:04.354Z,100050.75
2022-12-23T14:24:36.875Z,100058.34
2022-12-23T14:27:25.085Z,100061.81
2022-12-23T14:29:57.410Z,100054.50
2022-12-23T14:32:30.567Z,100058.97
2022-12-23T14:35:19.136Z,100057.16
2022-12-23T14:38:04.803Z,100065.00
2022-12-23T14:40:37.519Z,100074.22
2022-12-23T14:43:22.097Z,100068.38
2022-12-23T14:46:05.966Z,100074.22
2022-12-23T14:48:35.464Z,100070.75
2022-12-23T14:51:06.325Z,100062.16
2022-12-23T14:53:35.580Z,100058.97
2022-12-23T14:56:08.044Z,100054.97
2022-12-23T14:58:39.463Z,100062.53
2022-12-23T15:01:12.773Z,100050.56
2022-12-23T15:03:54.538Z,100057.09
2022-12-23T15:06:37.085Z,100056.56
2022-12-23T15:09:05.484Z,100049.56
2022-12-23T15:11:34.176Z,100035.81
2022-12-23T15:14:04.496Z,100035.66
2022-12-23T15:16:36.527Z,100034.75
2022-12-23T15:19:21.302Z,100033.56
2022-12-23T15:21:54.480Z,100027.59
2022-12-23T15:24:26.821Z,100037.78
2022-12-23T15:27:24.708Z,100047.34
2022-12-23T15:29:44.161Z,100057.78
2022-12-23T15:32:10.964Z,100061.91
2022-12-23T15:34:37.650Z,100073.72
2022-12-23T15:37:10.445Z,100070.75
2022-12-23T15:39:40.280Z,100058.47
2022-12-23T15:42:25.168Z,100050.00
2022-12-23T15:44:52.475Z,100040.50
2022-12-23T15:47:31.719Z,100057.56
2022-12-23T15:49:59.549Z,100060.84
2022-12-23T15:52:28.366Z,100055.41
2022-12-23T15:55:12.253Z,100052.09
2022-12-23T15:57:50.157Z,100060.94
2022-12-23T16:00:29.424Z,100062.91
2022-12-23T16:03:01.694Z,100073.78
2022-12-23T16:05:32.348Z,100061.84
2022-12-23T16:08:15.220Z,100060.47
2022-12-23T16:11:00.455Z,100050.00
2022-12-23T16:13:27.002Z,100047.72
2022-12-23T16:15:53.508Z,100063.97
2022-12-23T16:18:31.634Z,100066.41
2022-12-23T16:21:02.438Z,100072.81
2022-12-23T16:23:34.722Z,100057.81
2022-12-23T16:26:01.919Z,100046.34
2022-12-23T16:28:39.973Z,100047.06
2022-12-23T16:31:07.980Z,100047.88
2022-12-23T16:33:36.559Z,100056.69
2022-12-23T16:36:18.404Z,100062.00
2022-12-23T16:38:45.619Z,100052.16
2022-12-23T16:41:12.296Z,100054.69
2022-12-23T16:43:38.697Z,100050.47
2022-12-23T16:46:05.707Z,100048.34
2022-12-23T16:48:42.718Z,100051.75
2022-12-23T16:51:12.797Z,100053.16
2022-12-23T16:53:39.241Z,100065.50
2022-12-23T16:56:12.713Z,100067.09
2022-12-23T16:58:39.138Z,100062.91
2022-12-23T17:01:05.735Z,100069.94
2022-12-23T17:03:34.766Z,100066.03
2022-12-23T17:06:01.190Z,100072.19
2022-12-23T17:08:27.593Z,100079.25
2022-12-23T17:10:54.074Z,100070.66
2022-12-23T17:13:21.549Z,100070.25
2022-12-23T17:15:47.938Z,100077.94
2022-12-23T17:18:18.609Z,100072.94
2022-12-23T17:20:45.738Z,100078.03
2022-12-23T17:23:26.748Z,100071.59
2022-12-23T17:25:53.593Z,100066.69
2022-12-23T17:28:20.294Z,100072.50
2022-12-23T17:30:46.774Z,100060.44
2022-12-23T17:33:16.846Z,100062.34
2022-12-23T17:35:43.422Z,100045.50
2022-12-23T17:38:13.534Z,100055.66
2022-12-23T17:40:40.259Z,100068.38
2022-12-23T17:43:06.792Z,100069.00
2022-12-23T17:45:33.424Z,100060.06
2022-12-23T17:47:59.867Z,100068.28
2022-12-23T17:50:33.618Z,100066.13
2022-12-23T17:52:59.989Z,100059.97
2022-12-23T17:55:27.009Z,100067.94
2022-12-23T17:57:53.595Z,100069.97
2022-12-23T18:00:29.759Z,100065.97
2022-12-23T18:03:00.183Z,100072.22
2022-12-23T18:05:29.349Z,100069.53
2022-12-23T18:07:58.216Z,100077.41
2022-12-23T18:10:30.928Z,100072.94
2022-12-23T18:13:00.388Z,100077.22
2022-12-23T18:15:34.387Z,100082.91
2022-12-23T18:18:00.771Z,100077.84
2022-12-23T18:20:27.321Z,100081.41
2022-12-23T18:22:54.643Z,100078.66
2022-12-23T18:25:25.911Z,100086.34
2022-12-23T18:27:53.780Z,100091.81
2022-12-23T18:30:21.404Z,100081.16
2022-12-23T18:32:48.274Z,100085.19
2022-12-23T18:35:24.937Z,100096.75
2022-12-23T18:37:51.502Z,100100.50
2022-12-23T18:40:18.042Z,100099.69
2022-12-23T18:42:44.416Z,100105.94
2022-12-23T18:45:32.163Z,100105.69
2022-12-23T18:47:58.913Z,100110.66
2022-12-23T18:50:25.741Z,100112.28
2022-12-23T18:52:52.645Z,100107.00
2022-12-23T18:55:20.186Z,100114.16
2022-12-23T18:57:47.432Z,100113.91
2022-12-23T19:00:16.829Z,100120.53
2022-12-23T19:02:43.353Z,100123.56
2022-12-23T19:05:16.547Z,100137.31
2022-12-23T19:07:43.013Z,100120.88
2022-12-23T19:10:10.391Z,100126.16
2022-12-23T19:12:36.758Z,100125.19
2022-12-23T19:15:03.265Z,100122.13
2022-12-23T19:17:29.661Z,100112.84
2022-12-23T19:19:56.063Z,100119.38
2022-12-23T19:22:24.185Z,100133.13
2022-12-23T19:25:04.429Z,100130.25
2022-12-23T19:27:32.129Z,100137.31
2022-12-23T19:29:59.300Z,100135.72
2022-12-23T19:32:25.833Z,100147.50
2022-12-23T19:34:52.239Z,100137.69
2022-12-23T19:37:18.609Z,100137.31
2022-12-23T19:39:45.058Z,100145.38
2022-12-23T19:42:11.495Z,100149.03
2022-12-23T19:44:37.868Z,100144.84
2022-12-23T19:47:04.930Z,100152.41
2022-12-23T19:49:31.501Z,100145.03
2022-12-23T19:51:57.956Z,100145.47
2022-12-23T19:54:24.417Z,100162.16
2022-12-23T19:56:51.337Z,100164.31
2022-12-23T19:59:18.372Z,100171.91
2022-12-23T20:01:44.856Z,100171.03
2022-12-23T20:04:11.728Z,100178.56
2022-12-23T20:06:38.720Z,100188.09
2022-12-23T20:09:06.523Z,100193.72
2022-12-23T20:11:35.558Z,100185.69
2022-12-23T20:14:03.111Z,100202.22
2022-12-23T20:16:30.267Z,100208.31
2022-12-23T20:18:57.431Z,100202.69
2022-12-23T20:21:24.424Z,100202.34
2022-12-23T20:23:51.303Z,100212.78
2022-12-23T20:26:19.140Z,100210.19
2022-12-23T20:28:45.746Z,100223.09
2022-12-23T20:31:19.010Z,100219.84
2022-12-23T20:33:46.577Z,100235.03
2022-12-23T20:36:14.658Z,100227.53
2022-12-23T20:38:43.276Z,100229.88
2022-12-23T20:41:12.904Z,100235.03
2022-12-23T20:43:39.611Z,100252.41
2022-12-23T20:46:07.186Z,100247.66
2022-12-23T20:48:34.747Z,100241.84
2022-12-23T20:51:05.452Z,100249.53
2022-12-23T20:53:31.877Z,100255.50
2022-12-23T20:56:06.493Z,100264.97
2022-12-23T20:58:51.638Z,100267.56
2022-12-23T21:01:18.064Z,100279.41
2022-12-23T21:03:44.542Z,100275.41
2022-12-23T21:06:10.913Z,100275.41
2022-12-23T21:08:37.748Z,100282.00
2022-12-23T21:11:04.889Z,100289.66
2022-12-23T21:13:31.441Z,100299.59
2022-12-23T21:16:05.706Z,100287.91
2022-12-23T21:18:32.629Z,100302.63
2022-12-23T21:21:04.561Z,100288.06
2022-12-23T21:23:31.866Z,100317.97
2022-12-23T21:26:14.942Z,100311.69
2022-12-23T21:28:42.907Z,100314.63
2022-12-23T21:31:09.672Z,100313.00
2022-12-23T21:33:40.723Z,100322.56
2022-12-23T21:36:07.871Z,100316.44
2022-12-23T21:38:36.923Z,100317.22
2022-12-23T21:41:05.782Z,100341.34
2022-12-23T21:43:32.382Z,100334.22
2022-12-23T21:46:04.393Z,100342.28
2022-12-23T21:48:32.538Z,100354.56
2022-12-23T21:51:06.368Z,100345.78
2022-12-23T21:53:34.196Z,100350.81
2022-12-23T21:56:05.253Z,100346.66
2022-12-23T21:58:32.537Z,100369.59
2022-12-23T22:00:59.357Z,100365.88
2022-12-23T22:03:27.252Z,100351.97
2022-12-23T22:05:53.837Z,100365.56
2022-12-23T22:08:20.221Z,100393.50
2022-12-23T22:10:47.292Z,100373.13
2022-12-23T22:13:13.748Z,100411.88
2022-12-23T22:15:41.841Z,100383.41
2022-12-23T22:18:08.270Z,100412.56
2022-12-23T22:20:39.819Z,100399.63
2022-12-23T22:23:10.706Z,100407.25
2022-12-23T22:25:37.144Z,100406.22
2022-12-23T22:28:03.802Z,100408.06
2022-12-23T22:30:30.238Z,100405.59
2022-12-23T22:32:56.697Z,100417.44
2022-12-23T22:35:23.137Z,100412.88
2022-12-23T22:37:49.548Z,100439.44
2022-12-23T22:40:16.091Z,100424.72
2022-12-23T22:42:42.504Z,100427.16
2022-12-23T22:45:09.346Z,100421.50
2022-12-23T22:47:35.846Z,100442.56
2022-12-23T22:50:02.306Z,100440.91
2022-12-23T22:52:28.678Z,100439.28
2022-12-23T22:54:55.145Z,100448.06
2022-12-23T22:57:21.583Z,100442.69
2022-12-23T22:59:48.119Z,100449.94
2022-12-23T23:02:17.236Z,100452.41
2022-12-23T23:04:43.688Z,100451.59
2022-12-23T23:07:10.102Z,100469.41
2022-12-23T23:09:37.077Z,100469.25
2022-12-23T23:12:03.592Z,100469.56
2022-12-23T23:14:49.992Z,100472.94
2022-12-23T23:17:16.370Z,100467.81
2022-12-23T23:19:42.827Z,100482.50
2022-12-23T23:22:09.213Z,100481.03
2022-12-23T23:24:35.584Z,100485.91
2022-12-23T23:27:02.047Z,100490.78
2022-12-23T23:29:28.437Z,100480.09
2022-12-23T23:31:54.865Z,100494.53
2022-12-23T23:34:21.436Z,100497.44
2022-12-23T23:36:47.912Z,100504.53
2022-12-23T23:39:14.473Z,100510.34
2022-12-23T23:41:41.268Z,100502.91
2022-12-23T23:44:07.902Z,100506.16
2022-12-23T23:46:34.686Z,100519.59
2022-12-23T23:49:01.172Z,100528.50
2022-12-23T23:51:28.188Z,100517.50
2022-12-23T23:53:54.659Z,100525.75
2022-12-23T23:56:25.305Z,100531.44
2022-12-23T23:58:52.777Z,100540.16
